createdAt,value
2023-03-12T00:00:11.376Z,11.25
2023-03-12T00:02:38.938Z,10.18
2023-03-12T00:05:07.278Z,7.63
2023-03-12T00:07:36.529Z,8.70
2023-03-12T00:10:08.184Z,10.77
2023-03-12T00:15:04.325Z,8.05
2023-03-12T00:17:31.782Z,11.23
2023-03-12T00:19:59.476Z,7.80
2023-03-12T00:22:27.904Z,9.13
2023-03-12T00:24:56.996Z,8.23
2023-03-12T00:27:27.369Z,8.45
2023-03-12T00:29:55.036Z,10.63
2023-03-12T00:32:23.078Z,8.73
2023-03-12T00:34:53.077Z,7.63
2023-03-12T00:37:21.095Z,8.45
2023-03-12T00:39:48.942Z,7.75
2023-03-12T00:42:16.474Z,8.27
2023-03-12T00:44:44.405Z,9.23
2023-03-12T00:47:13.830Z,10.57
2023-03-12T00:49:41.720Z,8.40
2023-03-12T00:52:09.314Z,9.20
2023-03-12T00:54:37.049Z,6.85
2023-03-12T00:57:04.817Z,7.00
2023-03-12T00:59:33.200Z,9.80
2023-03-12T01:02:00.924Z,6.82
2023-03-12T01:04:28.658Z,6.85
2023-03-12T01:06:56.196Z,6.72
2023-03-12T01:09:24.033Z,7.32
2023-03-12T01:11:52.501Z,7.85
2023-03-12T01:14:20.507Z,9.68
2023-03-12T01:16:50.288Z,8.95
2023-03-12T01:19:19.236Z,9.00
2023-03-12T01:21:47.125Z,9.02
2023-03-12T01:24:14.854Z,12.82
2023-03-12T01:26:42.290Z,7.38
2023-03-12T01:29:10.010Z,9.55
2023-03-12T01:31:37.644Z,8.93
2023-03-12T01:34:05.216Z,9.15
2023-03-12T01:36:33.014Z,9.60
2023-03-12T01:39:01.401Z,11.93
2023-03-12T01:41:32.631Z,8.05
2023-03-12T01:44:03.723Z,8.98
2023-03-12T01:49:13.063Z,10.18
2023-03-12T01:52:01.718Z,8.43
2023-03-12T01:54:42.707Z,8.65
2023-03-12T01:57:19.940Z,10.60
2023-03-12T01:59:53.526Z,11.25
2023-03-12T02:02:27.106Z,9.15
2023-03-12T02:05:19.553Z,7.80
2023-03-12T02:07:47.187Z,7.95
2023-03-12T02:10:15.957Z,6.97
2023-03-12T02:12:43.674Z,8.52
2023-03-12T02:15:12.169Z,10.25
2023-03-12T02:17:40.972Z,7.88
2023-03-12T02:20:28.110Z,8.02
2023-03-12T02:23:10.203Z,8.80
2023-03-12T02:25:53.115Z,8.88
2023-03-12T02:28:25.019Z,8.45
2023-03-12T02:30:58.844Z,10.82
2023-03-12T02:33:26.834Z,11.35
2023-03-12T02:35:55.973Z,7.95
2023-03-12T02:38:52.425Z,10.47
2023-03-12T02:41:34.210Z,7.45
2023-03-12T02:44:20.791Z,11.45
2023-03-12T02:46:55.144Z,7.20
2023-03-12T02:49:28.771Z,9.93
2023-03-12T02:51:57.365Z,9.38
2023-03-12T02:54:26.276Z,9.30
2023-03-12T02:56:54.373Z,9.75
2023-03-12T02:59:25.997Z,8.50
2023-03-12T03:01:58.847Z,8.93
2023-03-12T03:04:29.807Z,10.45
2023-03-12T03:06:57.783Z,10.35
2023-03-12T03:09:26.272Z,9.57
2023-03-12T03:11:53.931Z,9.35
2023-03-12T03:14:23.484Z,9.57
2023-03-12T03:16:52.094Z,10.60
2023-03-12T03:19:23.613Z,10.57
2023-03-12T03:21:51.139Z,10.60
2023-03-12T03:24:18.829Z,10.27
2023-03-12T03:26:46.373Z,13.07
2023-03-12T03:29:14.338Z,7.85
2023-03-12T03:31:43.535Z,9.30
2023-03-12T03:34:12.509Z,8.30
2023-03-12T03:36:40.271Z,12.18
2023-03-12T03:39:12.222Z,10.10
2023-03-12T03:41:39.867Z,9.32
2023-03-12T03:44:07.894Z,10.52
2023-03-12T03:46:39.839Z,9.07
2023-03-12T03:49:10.519Z,11.93
2023-03-12T03:51:42.617Z,9.15
2023-03-12T03:54:12.932Z,10.45
2023-03-12T03:56:41.944Z,9.75
2023-03-12T03:59:10.716Z,10.85
2023-03-12T04:01:40.112Z,12.02
2023-03-12T04:04:09.164Z,9.63
2023-03-12T04:06:37.635Z,7.50
2023-03-12T04:09:05.366Z,9.60
2023-03-12T04:11:34.869Z,8.07
2023-03-12T04:14:03.904Z,9.80
2023-03-12T04:16:33.803Z,9.02
2023-03-12T04:19:02.766Z,10.43
2023-03-12T04:21:30.578Z,10.40
2023-03-12T04:23:58.572Z,8.55
2023-03-12T04:28:58.038Z,9.13
2023-03-12T04:31:25.935Z,8.77
2023-03-12T04:33:53.409Z,8.60
2023-03-12T04:36:24.217Z,13.27
2023-03-12T04:38:53.550Z,8.07
2023-03-12T04:41:27.621Z,10.18
2023-03-12T04:44:04.646Z,12.23
2023-03-12T04:46:34.478Z,9.87
2023-03-12T04:49:02.780Z,10.85
2023-03-12T04:51:32.584Z,11.38
2023-03-12T04:54:02.533Z,8.95
2023-03-12T04:56:30.205Z,7.80
2023-03-12T04:58:58.467Z,11.02
2023-03-12T05:01:34.896Z,11.48
2023-03-12T05:04:07.206Z,8.50
2023-03-12T05:06:35.588Z,11.15
2023-03-12T05:09:03.998Z,11.65
2023-03-12T05:11:31.593Z,8.80
2023-03-12T05:13:59.244Z,10.93
2023-03-12T05:16:26.926Z,9.18
2023-03-12T05:18:54.616Z,10.05
2023-03-12T05:21:24.951Z,11.20
2023-03-12T05:23:55.906Z,10.50
2023-03-12T05:26:32.501Z,9.93
2023-03-12T05:29:16.237Z,9.32
2023-03-12T05:31:44.850Z,8.77
2023-03-12T05:34:14.238Z,10.40
2023-03-12T05:36:46.729Z,11.32
2023-03-12T05:39:18.472Z,10.73
2023-03-12T05:41:46.066Z,12.15
2023-03-12T05:44:18.285Z,11.27
2023-03-12T05:46:51.543Z,11.25
2023-03-12T05:49:20.763Z,12.50
2023-03-12T05:51:49.762Z,7.85
2023-03-12T05:54:19.307Z,8.55
2023-03-12T05:56:49.308Z,11.18
2023-03-12T05:59:17.183Z,12.18
2023-03-12T06:01:44.972Z,8.38
2023-03-12T06:04:13.070Z,10.82
2023-03-12T06:06:40.968Z,10.13
2023-03-12T06:09:08.628Z,10.15
2023-03-12T06:11:36.473Z,8.65
2023-03-12T06:14:04.749Z,10.30
2023-03-12T06:16:33.830Z,10.43
2023-03-12T06:19:03.766Z,10.60
2023-03-12T06:21:38.591Z,9.60
2023-03-12T06:24:09.010Z,11.25
2023-03-12T06:26:59.034Z,10.98
2023-03-12T06:29:26.676Z,11.43
2023-03-12T06:31:55.876Z,8.93
2023-03-12T06:34:23.667Z,9.63
2023-03-12T06:36:51.136Z,10.50
2023-03-12T06:39:18.734Z,11.52
2023-03-12T06:41:46.561Z,10.52
2023-03-12T06:44:14.077Z,11.73
2023-03-12T06:46:42.848Z,12.73
2023-03-12T06:49:11.574Z,9.10
2023-03-12T06:51:39.232Z,10.02
2023-03-12T06:54:07.047Z,10.77
2023-03-12T06:56:34.846Z,15.30
2023-03-12T06:59:02.394Z,12.07
2023-03-12T07:01:29.982Z,14.75
2023-03-12T07:03:57.612Z,12.85
2023-03-12T07:06:25.592Z,12.98
2023-03-12T07:08:53.251Z,14.25
2023-03-12T07:11:21.024Z,11.57
2023-03-12T07:13:48.545Z,12.43
2023-03-12T07:16:16.106Z,13.15
2023-03-12T07:18:43.841Z,12.55
2023-03-12T07:21:11.282Z,14.88
2023-03-12T07:23:38.748Z,13.27
2023-03-12T07:26:06.803Z,14.15
2023-03-12T07:28:34.344Z,19.48
2023-03-12T07:31:04.399Z,16.00
2023-03-12T07:33:32.734Z,15.27
2023-03-12T07:36:00.956Z,13.48
2023-03-12T07:38:28.566Z,15.52
2023-03-12T07:40:58.931Z,13.68
2023-03-12T07:43:27.017Z,18.25
2023-03-12T07:45:56.050Z,10.25
2023-03-12T07:48:24.146Z,14.57
2023-03-12T07:50:52.276Z,16.38
2023-03-12T07:53:19.860Z,12.73
2023-03-12T07:55:48.507Z,15.38
2023-03-12T07:58:17.324Z,14.13
2023-03-12T08:00:45.087Z,11.63
2023-03-12T08:03:13.733Z,14.07
2023-03-12T08:05:41.647Z,14.75
2023-03-12T08:08:09.955Z,13.60
2023-03-12T08:10:37.797Z,16.85
2023-03-12T08:13:05.548Z,14.20
2023-03-12T08:15:33.556Z,13.50
2023-03-12T08:18:01.504Z,13.23
2023-03-12T08:20:29.169Z,17.35
2023-03-12T08:22:56.728Z,16.02
2023-03-12T08:25:24.856Z,11.45
2023-03-12T08:27:52.534Z,14.13
2023-03-12T08:30:21.112Z,13.77
2023-03-12T08:32:48.654Z,13.73
2023-03-12T08:35:16.399Z,14.00
2023-03-12T08:37:44.046Z,15.90
2023-03-12T08:40:15.469Z,13.75
2023-03-12T08:42:45.020Z,13.93
2023-03-12T08:45:14.357Z,15.05
2023-03-12T08:47:43.526Z,11.52
2023-03-12T08:50:14.717Z,11.63
2023-03-12T08:52:43.177Z,16.38
2023-03-12T08:55:11.979Z,14.02
2023-03-12T08:57:39.955Z,14.27
2023-03-12T09:00:14.915Z,15.90
2023-03-12T09:02:45.695Z,14.32
2023-03-12T09:05:14.231Z,16.50
2023-03-12T09:07:42.368Z,14.27
2023-03-12T09:10:10.597Z,14.32
2023-03-12T09:12:38.283Z,15.55
2023-03-12T09:15:07.087Z,13.85
2023-03-12T09:17:34.653Z,18.55
2023-03-12T09:20:02.266Z,17.77
2023-03-12T09:22:30.671Z,14.93
2023-03-12T09:24:58.232Z,15.48
2023-03-12T09:27:25.852Z,17.02
2023-03-12T09:30:00.508Z,17.77
2023-03-12T09:32:29.129Z,17.90
2023-03-12T09:34:57.162Z,19.60
2023-03-12T09:37:24.877Z,18.73
2023-03-12T09:39:54.203Z,19.85
2023-03-12T09:42:42.174Z,21.27
2023-03-12T09:45:21.118Z,21.60
2023-03-12T09:47:54.100Z,21.45
2023-03-12T09:50:29.959Z,25.85
2023-03-12T09:53:03.349Z,24.65
2023-03-12T09:55:39.691Z,22.67
2023-03-12T09:58:34.098Z,29.25
2023-03-12T10:01:49.506Z,23.20
2023-03-12T10:04:57.992Z,24.98
2023-03-12T10:07:43.221Z,24.33
2023-03-12T10:11:00.634Z,28.13
2023-03-12T10:14:23.054Z,26.60
2023-03-12T10:17:31.471Z,29.90
2023-03-12T10:20:30.307Z,28.90
2023-03-12T10:23:12.852Z,30.17
2023-03-12T10:25:57.243Z,33.00
2023-03-12T10:28:49.171Z,33.85
2023-03-12T10:31:44.555Z,32.50
2023-03-12T10:34:25.297Z,33.53
2023-03-12T10:36:59.983Z,33.58
2023-03-12T10:39:27.683Z,32.88
2023-03-12T10:41:56.721Z,30.45
2023-03-12T10:44:26.070Z,30.38
2023-03-12T10:47:27.386Z,26.88
2023-03-12T10:49:55.054Z,26.33
2023-03-12T10:52:23.802Z,30.23
2023-03-12T10:54:53.583Z,29.35
2023-03-12T10:57:21.196Z,34.17
2023-03-12T10:59:50.950Z,30.02
2023-03-12T11:02:36.253Z,27.65
2023-03-12T11:05:25.587Z,31.25
2023-03-12T11:07:53.451Z,29.02
2023-03-12T11:10:40.711Z,28.60
2023-03-12T11:13:41.882Z,33.70
2023-03-12T11:16:18.708Z,31.10
2023-03-12T11:19:04.136Z,31.20
2023-03-12T11:21:40.433Z,34.97
2023-03-12T11:24:14.725Z,31.00
2023-03-12T11:27:02.220Z,29.52
2023-03-12T11:29:39.661Z,30.02
2023-03-12T11:32:36.868Z,32.70
2023-03-12T11:35:11.555Z,29.58
2023-03-12T11:38:16.176Z,26.10
2023-03-12T11:41:08.647Z,25.95
2023-03-12T11:43:54.698Z,27.00
2023-03-12T11:46:33.583Z,25.58
2023-03-12T11:49:23.974Z,28.23
2023-03-12T11:52:37.377Z,27.73
2023-03-12T11:55:16.933Z,28.25
2023-03-12T11:58:12.447Z,32.58
2023-03-12T12:01:13.028Z,27.55
2023-03-12T12:04:02.380Z,33.38
2023-03-12T12:06:52.605Z,31.52
2023-03-12T12:09:35.467Z,27.35
2023-03-12T12:12:18.001Z,35.80
2023-03-12T12:15:12.718Z,33.45
2023-03-12T12:18:01.314Z,34.45
2023-03-12T12:20:58.952Z,29.50
2023-03-12T12:24:05.113Z,34.92
2023-03-12T12:27:04.260Z,34.72
2023-03-12T12:29:40.768Z,43.45
2023-03-12T12:32:35.633Z,37.55
2023-03-12T12:35:29.120Z,31.38
2023-03-12T12:38:06.908Z,27.25
2023-03-12T12:40:43.992Z,36.58
2023-03-12T12:43:27.989Z,33.08
2023-03-12T12:46:07.857Z,33.08
2023-03-12T12:48:43.578Z,26.23
2023-03-12T12:51:14.360Z,29.58
2023-03-12T12:54:25.544Z,28.53
2023-03-12T12:57:15.714Z,33.40
2023-03-12T13:00:18.867Z,29.02
2023-03-12T13:02:48.310Z,30.67
2023-03-12T13:05:46.139Z,33.17
2023-03-12T13:08:34.549Z,34.70
2023-03-12T13:11:42.996Z,29.48
2023-03-12T13:14:10.707Z,32.38
2023-03-12T13:16:44.372Z,31.35
2023-03-12T13:19:14.812Z,33.55
2023-03-12T13:22:39.110Z,33.58
2023-03-12T13:25:35.336Z,28.00
2023-03-12T13:28:32.631Z,28.10
2023-03-12T13:31:23.661Z,30.25
2023-03-12T13:33:56.905Z,29.00
2023-03-12T13:36:28.607Z,33.63
2023-03-12T13:41:31.965Z,29.23
2023-03-12T13:44:00.342Z,34.67
2023-03-12T13:46:45.825Z,32.15
2023-03-12T13:49:17.404Z,25.48
2023-03-12T13:51:55.820Z,26.45
2023-03-12T13:54:29.719Z,30.88
2023-03-12T13:57:10.307Z,27.25
2023-03-12T13:59:46.234Z,30.38
2023-03-12T14:02:28.466Z,24.08
2023-03-12T14:05:08.090Z,25.35
2023-03-12T14:07:54.967Z,24.27
2023-03-12T14:10:48.396Z,26.88
2023-03-12T14:13:39.759Z,21.48
2023-03-12T14:16:45.998Z,25.48
2023-03-12T14:19:19.688Z,27.40
2023-03-12T14:21:50.746Z,27.80
2023-03-12T14:24:39.155Z,32.05
2023-03-12T14:27:17.952Z,29.98
2023-03-12T14:29:55.633Z,26.17
2023-03-12T14:32:31.275Z,25.33
2023-03-12T14:35:25.974Z,30.27
2023-03-12T14:38:05.739Z,26.42
2023-03-12T14:40:59.493Z,27.40
2023-03-12T14:43:35.465Z,29.75
2023-03-12T14:46:14.284Z,22.88
2023-03-12T14:48:41.821Z,27.58
2023-03-12T14:51:26.555Z,26.75
2023-03-12T14:53:56.240Z,27.55
2023-03-12T14:56:29.483Z,25.17
2023-03-12T14:59:01.686Z,29.42
2023-03-12T15:01:39.598Z,26.33
2023-03-12T15:04:18.098Z,25.13
2023-03-12T15:06:56.970Z,25.85
2023-03-12T15:09:32.473Z,26.42
2023-03-12T15:12:07.875Z,31.20
2023-03-12T15:14:42.118Z,29.25
2023-03-12T15:17:18.446Z,34.40
2023-03-12T15:19:48.901Z,25.98
2023-03-12T15:22:22.128Z,28.50
2023-03-12T15:24:49.686Z,27.90
2023-03-12T15:27:30.004Z,32.63
2023-03-12T15:30:00.965Z,34.83
2023-03-12T15:32:31.733Z,27.85
2023-03-12T15:34:59.984Z,28.20
2023-03-12T15:37:38.049Z,30.92
2023-03-12T15:40:31.805Z,30.92
2023-03-12T15:43:03.333Z,33.67
2023-03-12T15:45:35.010Z,32.47
2023-03-12T15:48:21.689Z,27.58
2023-03-12T15:50:49.285Z,25.45
2023-03-12T15:53:19.471Z,30.77
2023-03-12T15:56:22.770Z,30.15
2023-03-12T15:59:02.354Z,29.88
2023-03-12T16:01:30.087Z,35.75
2023-03-12T16:03:58.668Z,29.13
2023-03-12T16:06:30.014Z,32.92
2023-03-12T16:09:03.810Z,31.60
2023-03-12T16:11:35.878Z,26.75
2023-03-12T16:14:32.911Z,29.17
2023-03-12T16:17:00.736Z,25.17
2023-03-12T16:19:33.162Z,30.17
2023-03-12T16:22:01.005Z,29.98
2023-03-12T16:24:28.637Z,30.25
2023-03-12T16:26:59.578Z,32.28
2023-03-12T16:29:36.948Z,32.05
2023-03-12T16:32:25.925Z,30.77
2023-03-12T16:34:53.454Z,32.83
2023-03-12T16:37:21.054Z,35.25
2023-03-12T16:39:49.549Z,28.40
2023-03-12T16:42:25.740Z,32.75
2023-03-12T16:44:53.350Z,33.65
2023-03-12T16:47:21.274Z,35.25
2023-03-12T16:49:48.726Z,39.53
2023-03-12T16:52:23.101Z,29.30
2023-03-12T16:54:52.008Z,38.70
2023-03-12T16:57:41.325Z,29.90
2023-03-12T17:00:16.813Z,32.50
2023-03-12T17:02:44.717Z,29.58
2023-03-12T17:05:12.897Z,32.10
2023-03-12T17:07:40.970Z,31.90
2023-03-12T17:10:10.515Z,35.03
2023-03-12T17:12:40.338Z,31.92
2023-03-12T17:15:20.587Z,29.88
2023-03-12T17:17:49.877Z,29.42
2023-03-12T17:20:21.311Z,26.80
2023-03-12T17:22:49.372Z,30.15
2023-03-12T17:25:30.796Z,28.35
2023-03-12T17:27:59.136Z,30.67
2023-03-12T17:30:30.665Z,32.90
2023-03-12T17:33:06.898Z,23.80
2023-03-12T17:35:35.873Z,30.48
2023-03-12T17:38:04.069Z,26.73
2023-03-12T17:40:31.807Z,28.92
2023-03-12T17:42:59.538Z,30.10
2023-03-12T17:45:28.265Z,30.67
2023-03-12T17:47:55.897Z,35.90
2023-03-12T17:50:23.386Z,28.13
2023-03-12T17:52:51.116Z,24.70
2023-03-12T17:55:18.785Z,31.80
2023-03-12T17:57:46.491Z,30.55
2023-03-12T18:00:14.610Z,33.78
2023-03-12T18:02:42.671Z,31.63
2023-03-12T18:05:15.897Z,26.95
2023-03-12T18:07:43.925Z,24.50
2023-03-12T18:10:14.504Z,25.98
2023-03-12T18:12:42.053Z,33.28
2023-03-12T18:15:13.905Z,32.17
2023-03-12T18:17:44.576Z,31.30
2023-03-12T18:20:16.675Z,29.67
2023-03-12T18:22:47.126Z,32.65
2023-03-12T18:25:14.933Z,33.70
2023-03-12T18:27:42.446Z,27.15
2023-03-12T18:30:14.196Z,30.02
2023-03-12T18:35:09.525Z,32.22
2023-03-12T18:37:37.089Z,30.27
2023-03-12T18:40:05.573Z,32.42
2023-03-12T18:42:33.117Z,30.38
2023-03-12T18:45:00.705Z,30.48
2023-03-12T18:47:28.253Z,32.70
2023-03-12T18:49:56.365Z,31.27
2023-03-12T18:52:23.947Z,32.63
2023-03-12T18:54:51.534Z,30.88
2023-03-12T18:57:19.000Z,33.20
2023-03-12T18:59:47.451Z,34.63
2023-03-12T19:02:14.930Z,31.30
2023-03-12T19:04:42.846Z,31.75
2023-03-12T19:07:10.844Z,29.00
2023-03-12T19:09:38.330Z,31.48
2023-03-12T19:12:06.154Z,31.35
2023-03-12T19:14:33.639Z,33.78
2023-03-12T19:17:01.082Z,32.92
2023-03-12T19:19:28.759Z,32.05
2023-03-12T19:21:57.460Z,28.50
2023-03-12T19:24:25.093Z,31.80
2023-03-12T19:26:52.716Z,25.95
2023-03-12T19:29:20.298Z,29.98
2023-03-12T19:31:47.942Z,30.05
2023-03-12T19:34:17.164Z,27.20
2023-03-12T19:36:44.876Z,28.58
2023-03-12T19:39:21.080Z,30.77
2023-03-12T19:41:50.871Z,29.80
2023-03-12T19:44:18.541Z,32.40
2023-03-12T19:46:46.066Z,33.03
2023-03-12T19:49:13.662Z,31.38
2023-03-12T19:51:41.404Z,30.98
2023-03-12T19:54:08.993Z,32.03
2023-03-12T19:56:36.489Z,31.88
2023-03-12T19:59:04.158Z,31.83
2023-03-12T20:01:31.618Z,29.88
2023-03-12T20:03:59.153Z,33.97
2023-03-12T20:06:26.977Z,33.45
2023-03-12T20:08:54.507Z,27.35
2023-03-12T20:11:23.093Z,26.67
2023-03-12T20:13:50.718Z,29.27
2023-03-12T20:16:18.918Z,27.00
2023-03-12T20:18:46.941Z,36.15
2023-03-12T20:21:14.604Z,36.20
2023-03-12T20:23:42.413Z,32.75
2023-03-12T20:26:10.717Z,35.50
2023-03-12T20:28:38.364Z,37.17
2023-03-12T20:31:15.527Z,32.80
2023-03-12T20:33:43.477Z,29.20
2023-03-12T20:36:13.901Z,29.38
2023-03-12T20:38:42.089Z,32.55
2023-03-12T20:41:14.151Z,34.38
2023-03-12T20:43:43.192Z,29.23
2023-03-12T20:46:12.272Z,35.25
2023-03-12T20:48:40.048Z,28.77
2023-03-12T20:51:07.708Z,34.20
2023-03-12T20:53:35.334Z,28.92
2023-03-12T20:56:05.324Z,33.25
2023-03-12T20:58:34.834Z,32.20
2023-03-12T21:01:04.977Z,30.80
2023-03-12T21:03:33.089Z,30.38
2023-03-12T21:06:02.862Z,29.30
2023-03-12T21:08:30.718Z,33.78
2023-03-12T21:10:58.423Z,28.92
2023-03-12T21:13:26.657Z,31.15
2023-03-12T21:15:54.165Z,31.10
2023-03-12T21:18:21.706Z,21.90
2023-03-12T21:20:49.549Z,30.83
2023-03-12T21:23:17.226Z,32.17
2023-03-12T21:25:44.949Z,23.83
2023-03-12T21:28:12.579Z,25.52
2023-03-12T21:30:40.253Z,28.10
2023-03-12T21:33:07.907Z,35.05
2023-03-12T21:35:35.535Z,28.20
2023-03-12T21:38:03.175Z,27.13
2023-03-12T21:40:30.815Z,32.15
2023-03-12T21:42:58.270Z,30.58
2023-03-12T21:45:25.957Z,25.55
2023-03-12T21:47:54.064Z,27.42
2023-03-12T21:50:22.060Z,28.42
2023-03-12T21:52:50.773Z,30.95
2023-03-12T21:55:19.022Z,28.17
2023-03-12T21:57:47.419Z,26.02
2023-03-12T22:00:15.648Z,26.60
2023-03-12T22:02:45.193Z,31.63
2023-03-12T22:05:13.481Z,29.00
2023-03-12T22:07:41.032Z,30.45
2023-03-12T22:10:11.975Z,27.95
2023-03-12T22:12:40.101Z,23.25
2023-03-12T22:15:09.294Z,25.63
2023-03-12T22:17:37.006Z,25.92
2023-03-12T22:20:07.753Z,26.45
2023-03-12T22:22:35.442Z,27.90
2023-03-12T22:25:03.045Z,26.63
2023-03-12T22:27:30.734Z,24.35
2023-03-12T22:29:58.178Z,23.80
2023-03-12T22:32:25.900Z,26.63
2023-03-12T22:34:54.158Z,25.55
2023-03-12T22:37:21.630Z,20.48
2023-03-12T22:39:49.170Z,27.52
2023-03-12T22:42:16.931Z,24.90
2023-03-12T22:44:44.418Z,23.92
2023-03-12T22:47:17.928Z,26.92
2023-03-12T22:49:46.678Z,23.52
2023-03-12T22:52:22.086Z,25.15
2023-03-12T22:54:50.251Z,24.83
2023-03-12T22:57:17.802Z,29.35
2023-03-12T22:59:47.985Z,23.50
2023-03-12T23:02:15.749Z,21.80
2023-03-12T23:04:43.541Z,21.85
2023-03-12T23:07:15.953Z,23.90
2023-03-12T23:09:47.245Z,24.27
2023-03-12T23:12:14.775Z,29.52
2023-03-12T23:14:42.348Z,25.65
2023-03-12T23:17:10.005Z,22.67
2023-03-12T23:19:37.541Z,29.88
2023-03-12T23:22:05.216Z,24.40
2023-03-12T23:24:32.993Z,24.63
2023-03-12T23:27:00.444Z,23.60
2023-03-12T23:29:30.950Z,24.92
2023-03-12T23:31:58.700Z,29.95
2023-03-12T23:34:27.008Z,25.15
2023-03-12T23:36:54.566Z,23.13
2023-03-12T23:39:23.226Z,22.70
2023-03-12T23:41:50.848Z,23.05
2023-03-12T23:44:18.315Z,21.65
2023-03-12T23:46:45.982Z,23.67
2023-03-12T23:49:13.518Z,21.88
2023-03-12T23:51:41.254Z,22.27
2023-03-12T23:54:09.025Z,20.10
2023-03-12T23:56:39.741Z,20.95
2023-03-12T23:59:09.773Z,20.30
